KGRR/GRR METAR and TAF weather

Enter ICAO airport designator
Station Type Date Time Source
KGRR METAR 2020/01/17 13:53 UTC NOAA

KGRR 171353Z 09005KT 10SM FEW024 BKN250 M09/M11 A3081 RMK AO2 SLP448 T10891111


Station Type Date Time Source
KGRR Decoded METAR 2020/01/17 13:53 UTC NOAA

GERALD R. FORD INTERNATIONAL, MI, United States (KGRR) 42-53N 085-31W 239M
Jan 17, 2020 - 08:53 AM EST / 2020.01.17 1353 UTC
Wind: from the E (090 degrees) at 6 MPH (5 KT):0
Visibility: 10 mile(s):0
Sky conditions: mostly cloudy
Temperature: 16.0 F (-8.9 C)
Windchill: 6 F (-14 C):1
Dew Point: 12.0 F (-11.1 C)
Relative Humidity: 84%
Pressure (altimeter): 30.81 in. Hg (1043 hPa)
ob: KGRR 171353Z 09005KT 10SM FEW024 BKN250 M09/M11 A3081 RMK AO2 SLP448 T10891111
cycle: 14

Station Type Date Time Source
KGRR TAF 2020/01/17 12:33 UTC NOAA

TAF KGRR 171130Z 1712/1812 VRB03KT P6SM FEW035 BKN200
FM171500 11006KT P6SM BKN200
FM172100 12010G18KT P6SM BKN150
FM180200 12012G20KT P6SM -SN OVC040
FM180400 11014G24KT 1SM -SN BR OVC008

Example: see airport list